sensor_id;sensor_type;location;lat;lon;timestamp;P1;durP1;ratioP1;P2;durP2;ratioP2
31728;SDS011;18309;43.658;1.312;2023-02-04T00:00:21;24.88;;;7.15;;
31728;SDS011;18309;43.658;1.312;2023-02-04T00:02:47;24.58;;;7.53;;
31728;SDS011;18309;43.658;1.312;2023-02-04T00:05:15;24.52;;;6.82;;
31728;SDS011;18309;43.658;1.312;2023-02-04T00:07:42;20.70;;;6.43;;
31728;SDS011;18309;43.658;1.312;2023-02-04T00:10:09;24.42;;;7.07;;
31728;SDS011;18309;43.658;1.312;2023-02-04T00:12:34;39.28;;;10.60;;
31728;SDS011;18309;43.658;1.312;2023-02-04T00:15:00;25.20;;;7.05;;
31728;SDS011;18309;43.658;1.312;2023-02-04T00:17:26;25.60;;;7.43;;
31728;SDS011;18309;43.658;1.312;2023-02-04T00:19:52;27.50;;;7.25;;
31728;SDS011;18309;43.658;1.312;2023-02-04T00:22:17;36.92;;;7.38;;
31728;SDS011;18309;43.658;1.312;2023-02-04T00:24:44;33.67;;;10.35;;
31728;SDS011;18309;43.658;1.312;2023-02-04T00:27:13;31.35;;;10.32;;
31728;SDS011;18309;43.658;1.312;2023-02-04T00:29:40;25.83;;;10.63;;
31728;SDS011;18309;43.658;1.312;2023-02-04T00:32:05;27.80;;;8.77;;
31728;SDS011;18309;43.658;1.312;2023-02-04T00:34:31;19.85;;;7.60;;
31728;SDS011;18309;43.658;1.312;2023-02-04T00:36:57;26.30;;;8.25;;
31728;SDS011;18309;43.658;1.312;2023-02-04T00:39:22;24.00;;;7.90;;
31728;SDS011;18309;43.658;1.312;2023-02-04T00:41:48;23.75;;;8.05;;
31728;SDS011;18309;43.658;1.312;2023-02-04T00:44:14;29.30;;;11.18;;
31728;SDS011;18309;43.658;1.312;2023-02-04T00:46:40;31.25;;;12.80;;
31728;SDS011;18309;43.658;1.312;2023-02-04T00:49:07;34.53;;;14.20;;
31728;SDS011;18309;43.658;1.312;2023-02-04T00:51:35;44.22;;;15.20;;
31728;SDS011;18309;43.658;1.312;2023-02-04T00:54:05;40.95;;;13.90;;
31728;SDS011;18309;43.658;1.312;2023-02-04T00:56:31;29.75;;;10.23;;
31728;SDS011;18309;43.658;1.312;2023-02-04T00:58:58;32.63;;;10.50;;
31728;SDS011;18309;43.658;1.312;2023-02-04T01:01:23;34.85;;;12.60;;
31728;SDS011;18309;43.658;1.312;2023-02-04T01:03:49;29.35;;;10.85;;
31728;SDS011;18309;43.658;1.312;2023-02-04T01:06:15;28.23;;;9.63;;
31728;SDS011;18309;43.658;1.312;2023-02-04T01:08:40;34.75;;;10.60;;
31728;SDS011;18309;43.658;1.312;2023-02-04T01:11:06;39.97;;;14.55;;
31728;SDS011;18309;43.658;1.312;2023-02-04T01:13:32;33.33;;;12.20;;
31728;SDS011;18309;43.658;1.312;2023-02-04T01:15:57;29.98;;;10.90;;
31728;SDS011;18309;43.658;1.312;2023-02-04T01:18:23;31.98;;;11.55;;
31728;SDS011;18309;43.658;1.312;2023-02-04T01:20:49;26.30;;;9.98;;
31728;SDS011;18309;43.658;1.312;2023-02-04T01:23:14;29.70;;;9.95;;
31728;SDS011;18309;43.658;1.312;2023-02-04T01:25:40;25.45;;;8.75;;
31728;SDS011;18309;43.658;1.312;2023-02-04T01:28:06;23.42;;;8.75;;
31728;SDS011;18309;43.658;1.312;2023-02-04T01:30:31;22.38;;;9.43;;
31728;SDS011;18309;43.658;1.312;2023-02-04T01:32:57;21.90;;;8.93;;
31728;SDS011;18309;43.658;1.312;2023-02-04T01:35:23;25.20;;;8.25;;
31728;SDS011;18309;43.658;1.312;2023-02-04T01:37:49;25.85;;;9.10;;
31728;SDS011;18309;43.658;1.312;2023-02-04T01:40:15;26.35;;;8.65;;
31728;SDS011;18309;43.658;1.312;2023-02-04T01:42:41;23.65;;;7.75;;
31728;SDS011;18309;43.658;1.312;2023-02-04T01:45:06;25.63;;;8.80;;
31728;SDS011;18309;43.658;1.312;2023-02-04T01:47:33;23.63;;;8.43;;
31728;SDS011;18309;43.658;1.312;2023-02-04T01:49:59;27.25;;;8.88;;
31728;SDS011;18309;43.658;1.312;2023-02-04T01:52:25;20.10;;;7.95;;
31728;SDS011;18309;43.658;1.312;2023-02-04T01:54:55;22.70;;;8.23;;
31728;SDS011;18309;43.658;1.312;2023-02-04T01:57:20;23.23;;;7.70;;
31728;SDS011;18309;43.658;1.312;2023-02-04T01:59:46;24.70;;;7.70;;
31728;SDS011;18309;43.658;1.312;2023-02-04T02:02:36;23.83;;;7.15;;
31728;SDS011;18309;43.658;1.312;2023-02-04T02:05:06;17.40;;;6.68;;
31728;SDS011;18309;43.658;1.312;2023-02-04T02:07:33;25.60;;;7.63;;
31728;SDS011;18309;43.658;1.312;2023-02-04T02:10:00;20.17;;;7.63;;
31728;SDS011;18309;43.658;1.312;2023-02-04T02:12:27;19.50;;;6.90;;
31728;SDS011;18309;43.658;1.312;2023-02-04T02:14:53;21.23;;;6.68;;
31728;SDS011;18309;43.658;1.312;2023-02-04T02:17:19;24.42;;;6.43;;
31728;SDS011;18309;43.658;1.312;2023-02-04T02:19:45;32.97;;;7.28;;
31728;SDS011;18309;43.658;1.312;2023-02-04T02:22:16;24.38;;;7.53;;
31728;SDS011;18309;43.658;1.312;2023-02-04T02:24:53;17.52;;;7.00;;
31728;SDS011;18309;43.658;1.312;2023-02-04T02:27:19;16.35;;;6.55;;
31728;SDS011;18309;43.658;1.312;2023-02-04T02:29:46;25.77;;;7.43;;
31728;SDS011;18309;43.658;1.312;2023-02-04T02:32:12;19.75;;;6.70;;
31728;SDS011;18309;43.658;1.312;2023-02-04T02:34:38;21.35;;;6.82;;
31728;SDS011;18309;43.658;1.312;2023-02-04T02:37:05;19.90;;;6.85;;
31728;SDS011;18309;43.658;1.312;2023-02-04T02:39:33;15.63;;;6.28;;
31728;SDS011;18309;43.658;1.312;2023-02-04T02:42:00;19.17;;;7.00;;
31728;SDS011;18309;43.658;1.312;2023-02-04T02:44:26;17.88;;;5.88;;
31728;SDS011;18309;43.658;1.312;2023-02-04T02:46:53;17.52;;;6.25;;
31728;SDS011;18309;43.658;1.312;2023-02-04T02:49:19;24.75;;;6.20;;
31728;SDS011;18309;43.658;1.312;2023-02-04T02:51:46;16.90;;;6.07;;
31728;SDS011;18309;43.658;1.312;2023-02-04T02:54:17;19.95;;;6.18;;
31728;SDS011;18309;43.658;1.312;2023-02-04T02:56:50;18.30;;;6.80;;
31728;SDS011;18309;43.658;1.312;2023-02-04T02:59:16;17.38;;;6.15;;
31728;SDS011;18309;43.658;1.312;2023-02-04T03:01:43;17.42;;;5.53;;
31728;SDS011;18309;43.658;1.312;2023-02-04T03:04:12;12.65;;;5.63;;
31728;SDS011;18309;43.658;1.312;2023-02-04T03:06:38;22.27;;;6.93;;
31728;SDS011;18309;43.658;1.312;2023-02-04T03:09:04;19.40;;;5.88;;
31728;SDS011;18309;43.658;1.312;2023-02-04T03:11:30;19.65;;;6.68;;
31728;SDS011;18309;43.658;1.312;2023-02-04T03:13:56;21.67;;;6.32;;
31728;SDS011;18309;43.658;1.312;2023-02-04T03:16:27;18.48;;;6.00;;
31728;SDS011;18309;43.658;1.312;2023-02-04T03:18:54;13.00;;;5.40;;
31728;SDS011;18309;43.658;1.312;2023-02-04T03:21:20;23.63;;;5.82;;
31728;SDS011;18309;43.658;1.312;2023-02-04T03:23:46;24.42;;;5.60;;
31728;SDS011;18309;43.658;1.312;2023-02-04T03:26:11;12.70;;;5.22;;
31728;SDS011;18309;43.658;1.312;2023-02-04T03:28:40;15.10;;;5.25;;
31728;SDS011;18309;43.658;1.312;2023-02-04T03:31:06;19.10;;;5.80;;
31728;SDS011;18309;43.658;1.312;2023-02-04T03:33:32;15.82;;;5.38;;
31728;SDS011;18309;43.658;1.312;2023-02-04T03:36:00;21.45;;;5.25;;
31728;SDS011;18309;43.658;1.312;2023-02-04T03:38:25;17.08;;;5.43;;
31728;SDS011;18309;43.658;1.312;2023-02-04T03:40:51;13.77;;;5.07;;
31728;SDS011;18309;43.658;1.312;2023-02-04T03:43:17;17.13;;;5.07;;
31728;SDS011;18309;43.658;1.312;2023-02-04T03:45:43;13.63;;;4.68;;
31728;SDS011;18309;43.658;1.312;2023-02-04T03:48:09;14.55;;;4.63;;
31728;SDS011;18309;43.658;1.312;2023-02-04T03:50:34;15.77;;;4.60;;
31728;SDS011;18309;43.658;1.312;2023-02-04T03:53:00;19.13;;;5.35;;
31728;SDS011;18309;43.658;1.312;2023-02-04T03:55:26;16.88;;;5.22;;
31728;SDS011;18309;43.658;1.312;2023-02-04T03:57:52;15.30;;;5.30;;
31728;SDS011;18309;43.658;1.312;2023-02-04T04:00:18;20.05;;;4.35;;
31728;SDS011;18309;43.658;1.312;2023-02-04T04:02:44;22.20;;;5.28;;
31728;SDS011;18309;43.658;1.312;2023-02-04T04:05:09;16.52;;;5.15;;
31728;SDS011;18309;43.658;1.312;2023-02-04T04:07:35;18.55;;;5.05;;
31728;SDS011;18309;43.658;1.312;2023-02-04T04:10:02;23.85;;;5.18;;
31728;SDS011;18309;43.658;1.312;2023-02-04T04:12:28;23.00;;;5.20;;
31728;SDS011;18309;43.658;1.312;2023-02-04T04:14:53;23.45;;;5.43;;
31728;SDS011;18309;43.658;1.312;2023-02-04T04:17:19;13.25;;;5.50;;
31728;SDS011;18309;43.658;1.312;2023-02-04T04:19:45;22.45;;;6.15;;
31728;SDS011;18309;43.658;1.312;2023-02-04T04:22:13;13.80;;;5.47;;
31728;SDS011;18309;43.658;1.312;2023-02-04T04:24:39;23.58;;;5.10;;
31728;SDS011;18309;43.658;1.312;2023-02-04T04:27:05;23.80;;;6.07;;
31728;SDS011;18309;43.658;1.312;2023-02-04T04:29:31;19.17;;;5.32;;
31728;SDS011;18309;43.658;1.312;2023-02-04T04:31:57;18.25;;;5.25;;
31728;SDS011;18309;43.658;1.312;2023-02-04T04:34:22;24.00;;;5.88;;
31728;SDS011;18309;43.658;1.312;2023-02-04T04:36:48;17.10;;;5.63;;
31728;SDS011;18309;43.658;1.312;2023-02-04T04:39:13;14.10;;;5.20;;
31728;SDS011;18309;43.658;1.312;2023-02-04T04:41:39;21.63;;;5.75;;
31728;SDS011;18309;43.658;1.312;2023-02-04T04:44:05;14.85;;;4.72;;
31728;SDS011;18309;43.658;1.312;2023-02-04T04:46:30;19.48;;;5.88;;
31728;SDS011;18309;43.658;1.312;2023-02-04T04:48:56;17.38;;;5.38;;
31728;SDS011;18309;43.658;1.312;2023-02-04T04:51:22;20.70;;;5.25;;
31728;SDS011;18309;43.658;1.312;2023-02-04T04:53:47;20.45;;;5.35;;
31728;SDS011;18309;43.658;1.312;2023-02-04T04:56:13;19.77;;;5.90;;
31728;SDS011;18309;43.658;1.312;2023-02-04T04:58:39;17.20;;;5.43;;
31728;SDS011;18309;43.658;1.312;2023-02-04T05:01:04;19.65;;;5.75;;
31728;SDS011;18309;43.658;1.312;2023-02-04T05:03:30;21.25;;;6.63;;
31728;SDS011;18309;43.658;1.312;2023-02-04T05:05:56;19.05;;;5.90;;
31728;SDS011;18309;43.658;1.312;2023-02-04T05:08:22;19.55;;;5.65;;
31728;SDS011;18309;43.658;1.312;2023-02-04T05:10:47;33.72;;;7.80;;
31728;SDS011;18309;43.658;1.312;2023-02-04T05:13:13;21.67;;;6.03;;
31728;SDS011;18309;43.658;1.312;2023-02-04T05:15:39;21.08;;;5.95;;
31728;SDS011;18309;43.658;1.312;2023-02-04T05:18:05;20.95;;;6.10;;
31728;SDS011;18309;43.658;1.312;2023-02-04T05:20:30;17.90;;;5.47;;
31728;SDS011;18309;43.658;1.312;2023-02-04T05:22:56;20.08;;;6.53;;
31728;SDS011;18309;43.658;1.312;2023-02-04T05:25:25;27.45;;;6.00;;
31728;SDS011;18309;43.658;1.312;2023-02-04T05:27:51;30.48;;;7.20;;
31728;SDS011;18309;43.658;1.312;2023-02-04T05:30:17;22.67;;;6.07;;
31728;SDS011;18309;43.658;1.312;2023-02-04T05:32:43;22.80;;;6.90;;
31728;SDS011;18309;43.658;1.312;2023-02-04T05:35:08;23.85;;;6.57;;
31728;SDS011;18309;43.658;1.312;2023-02-04T05:37:34;25.30;;;7.68;;
31728;SDS011;18309;43.658;1.312;2023-02-04T05:40:00;22.83;;;7.40;;
31728;SDS011;18309;43.658;1.312;2023-02-04T05:42:26;19.65;;;6.43;;
31728;SDS011;18309;43.658;1.312;2023-02-04T05:44:51;23.60;;;6.20;;
31728;SDS011;18309;43.658;1.312;2023-02-04T05:47:17;22.20;;;6.47;;
31728;SDS011;18309;43.658;1.312;2023-02-04T05:49:44;17.23;;;7.32;;
31728;SDS011;18309;43.658;1.312;2023-02-04T05:52:10;23.13;;;7.55;;
31728;SDS011;18309;43.658;1.312;2023-02-04T05:54:36;16.13;;;6.68;;
31728;SDS011;18309;43.658;1.312;2023-02-04T05:57:01;31.45;;;7.40;;
31728;SDS011;18309;43.658;1.312;2023-02-04T05:59:27;13.30;;;6.00;;
31728;SDS011;18309;43.658;1.312;2023-02-04T06:01:53;21.25;;;6.25;;
31728;SDS011;18309;43.658;1.312;2023-02-04T06:04:18;18.88;;;6.72;;
31728;SDS011;18309;43.658;1.312;2023-02-04T06:06:44;21.20;;;6.47;;
31728;SDS011;18309;43.658;1.312;2023-02-04T06:09:10;26.13;;;8.15;;
31728;SDS011;18309;43.658;1.312;2023-02-04T06:11:35;15.52;;;5.90;;
31728;SDS011;18309;43.658;1.312;2023-02-04T06:14:01;20.23;;;6.38;;
31728;SDS011;18309;43.658;1.312;2023-02-04T06:16:27;17.20;;;6.32;;
31728;SDS011;18309;43.658;1.312;2023-02-04T06:18:53;21.20;;;6.75;;
31728;SDS011;18309;43.658;1.312;2023-02-04T06:21:19;23.70;;;8.63;;
31728;SDS011;18309;43.658;1.312;2023-02-04T06:23:45;19.15;;;7.07;;
31728;SDS011;18309;43.658;1.312;2023-02-04T06:26:11;19.27;;;7.30;;
31728;SDS011;18309;43.658;1.312;2023-02-04T06:28:36;25.45;;;7.20;;
31728;SDS011;18309;43.658;1.312;2023-02-04T06:31:02;19.55;;;6.72;;
31728;SDS011;18309;43.658;1.312;2023-02-04T06:33:28;19.35;;;7.10;;
31728;SDS011;18309;43.658;1.312;2023-02-04T06:35:53;25.45;;;7.32;;
31728;SDS011;18309;43.658;1.312;2023-02-04T06:38:19;22.50;;;6.97;;
31728;SDS011;18309;43.658;1.312;2023-02-04T06:40:45;23.02;;;8.00;;
31728;SDS011;18309;43.658;1.312;2023-02-04T06:43:13;26.05;;;9.30;;
31728;SDS011;18309;43.658;1.312;2023-02-04T06:45:40;31.83;;;9.73;;
31728;SDS011;18309;43.658;1.312;2023-02-04T06:48:05;29.83;;;10.23;;
31728;SDS011;18309;43.658;1.312;2023-02-04T06:50:31;27.10;;;8.32;;
31728;SDS011;18309;43.658;1.312;2023-02-04T06:52:57;23.90;;;9.35;;
31728;SDS011;18309;43.658;1.312;2023-02-04T06:55:23;87.00;;;37.15;;
31728;SDS011;18309;43.658;1.312;2023-02-04T06:57:48;318.67;;;167.55;;
31728;SDS011;18309;43.658;1.312;2023-02-04T07:00:14;337.65;;;185.20;;
31728;SDS011;18309;43.658;1.312;2023-02-04T07:02:40;132.85;;;72.63;;
31728;SDS011;18309;43.658;1.312;2023-02-04T07:05:06;41.90;;;20.35;;
31728;SDS011;18309;43.658;1.312;2023-02-04T07:07:32;33.88;;;13.32;;
31728;SDS011;18309;43.658;1.312;2023-02-04T07:09:58;25.27;;;11.68;;
31728;SDS011;18309;43.658;1.312;2023-02-04T07:12:24;26.13;;;11.43;;
31728;SDS011;18309;43.658;1.312;2023-02-04T07:14:50;37.00;;;16.63;;
31728;SDS011;18309;43.658;1.312;2023-02-04T07:17:16;100.35;;;17.33;;
31728;SDS011;18309;43.658;1.312;2023-02-04T07:19:41;133.20;;;20.13;;
31728;SDS011;18309;43.658;1.312;2023-02-04T07:22:07;140.15;;;23.55;;
31728;SDS011;18309;43.658;1.312;2023-02-04T07:24:33;102.90;;;19.15;;
31728;SDS011;18309;43.658;1.312;2023-02-04T07:26:59;74.38;;;16.10;;
31728;SDS011;18309;43.658;1.312;2023-02-04T07:29:25;130.00;;;20.45;;
31728;SDS011;18309;43.658;1.312;2023-02-04T07:31:50;69.43;;;13.85;;
31728;SDS011;18309;43.658;1.312;2023-02-04T07:34:16;74.25;;;13.32;;
31728;SDS011;18309;43.658;1.312;2023-02-04T07:36:42;58.05;;;15.73;;
31728;SDS011;18309;43.658;1.312;2023-02-04T07:39:08;52.20;;;22.98;;
31728;SDS011;18309;43.658;1.312;2023-02-04T07:41:34;43.75;;;22.33;;
31728;SDS011;18309;43.658;1.312;2023-02-04T07:44:00;50.92;;;22.08;;
31728;SDS011;18309;43.658;1.312;2023-02-04T07:46:26;45.67;;;25.10;;
31728;SDS011;18309;43.658;1.312;2023-02-04T07:48:52;45.38;;;26.10;;
31728;SDS011;18309;43.658;1.312;2023-02-04T07:51:18;55.55;;;16.98;;
31728;SDS011;18309;43.658;1.312;2023-02-04T07:53:43;111.82;;;33.90;;
31728;SDS011;18309;43.658;1.312;2023-02-04T07:56:09;111.35;;;21.42;;
31728;SDS011;18309;43.658;1.312;2023-02-04T07:58:35;106.55;;;25.13;;
31728;SDS011;18309;43.658;1.312;2023-02-04T08:01:00;120.18;;;22.05;;
31728;SDS011;18309;43.658;1.312;2023-02-04T08:03:26;143.60;;;25.60;;
31728;SDS011;18309;43.658;1.312;2023-02-04T08:05:52;116.63;;;20.80;;
31728;SDS011;18309;43.658;1.312;2023-02-04T08:08:18;111.85;;;26.83;;
31728;SDS011;18309;43.658;1.312;2023-02-04T08:10:56;43.05;;;16.08;;
31728;SDS011;18309;43.658;1.312;2023-02-04T08:13:22;42.30;;;17.35;;
31728;SDS011;18309;43.658;1.312;2023-02-04T08:15:49;41.00;;;14.50;;
31728;SDS011;18309;43.658;1.312;2023-02-04T08:18:15;34.90;;;14.60;;
31728;SDS011;18309;43.658;1.312;2023-02-04T08:20:41;40.97;;;13.20;;
31728;SDS011;18309;43.658;1.312;2023-02-04T08:23:07;46.70;;;16.98;;
31728;SDS011;18309;43.658;1.312;2023-02-04T08:25:33;49.47;;;20.00;;
31728;SDS011;18309;43.658;1.312;2023-02-04T08:27:58;107.97;;;21.83;;
31728;SDS011;18309;43.658;1.312;2023-02-04T08:30:24;104.55;;;20.58;;
31728;SDS011;18309;43.658;1.312;2023-02-04T08:32:50;152.43;;;27.85;;
31728;SDS011;18309;43.658;1.312;2023-02-04T08:35:16;161.60;;;22.58;;
31728;SDS011;18309;43.658;1.312;2023-02-04T08:37:42;79.65;;;19.20;;
31728;SDS011;18309;43.658;1.312;2023-02-04T08:40:08;100.90;;;17.75;;
31728;SDS011;18309;43.658;1.312;2023-02-04T08:42:34;60.63;;;13.57;;
31728;SDS011;18309;43.658;1.312;2023-02-04T08:45:00;52.20;;;14.10;;
31728;SDS011;18309;43.658;1.312;2023-02-04T08:47:26;41.05;;;11.35;;
31728;SDS011;18309;43.658;1.312;2023-02-04T08:49:51;32.58;;;11.35;;
31728;SDS011;18309;43.658;1.312;2023-02-04T08:52:18;34.45;;;11.65;;
31728;SDS011;18309;43.658;1.312;2023-02-04T08:54:44;31.42;;;10.77;;
31728;SDS011;18309;43.658;1.312;2023-02-04T08:57:09;32.65;;;9.93;;
31728;SDS011;18309;43.658;1.312;2023-02-04T08:59:35;28.25;;;9.52;;
31728;SDS011;18309;43.658;1.312;2023-02-04T09:02:00;38.10;;;12.55;;
31728;SDS011;18309;43.658;1.312;2023-02-04T09:04:27;39.88;;;11.93;;
31728;SDS011;18309;43.658;1.312;2023-02-04T09:06:53;27.05;;;10.57;;
31728;SDS011;18309;43.658;1.312;2023-02-04T09:09:19;24.88;;;10.95;;
31728;SDS011;18309;43.658;1.312;2023-02-04T09:11:45;28.17;;;9.55;;
31728;SDS011;18309;43.658;1.312;2023-02-04T09:14:11;32.38;;;10.30;;
31728;SDS011;18309;43.658;1.312;2023-02-04T09:16:37;26.25;;;10.27;;
31728;SDS011;18309;43.658;1.312;2023-02-04T09:19:03;22.48;;;9.65;;
31728;SDS011;18309;43.658;1.312;2023-02-04T09:21:29;48.33;;;12.43;;
31728;SDS011;18309;43.658;1.312;2023-02-04T09:23:55;33.80;;;11.38;;
31728;SDS011;18309;43.658;1.312;2023-02-04T09:26:22;49.22;;;15.15;;
31728;SDS011;18309;43.658;1.312;2023-02-04T09:28:47;28.70;;;12.05;;
31728;SDS011;18309;43.658;1.312;2023-02-04T09:31:13;31.80;;;11.48;;
31728;SDS011;18309;43.658;1.312;2023-02-04T09:33:40;23.15;;;9.68;;
31728;SDS011;18309;43.658;1.312;2023-02-04T09:36:06;31.85;;;12.52;;
31728;SDS011;18309;43.658;1.312;2023-02-04T09:38:32;25.75;;;9.40;;
31728;SDS011;18309;43.658;1.312;2023-02-04T09:41:05;18.00;;;7.88;;
31728;SDS011;18309;43.658;1.312;2023-02-04T09:43:42;21.88;;;8.00;;
31728;SDS011;18309;43.658;1.312;2023-02-04T09:46:14;21.13;;;8.07;;
31728;SDS011;18309;43.658;1.312;2023-02-04T09:48:45;21.50;;;7.70;;
31728;SDS011;18309;43.658;1.312;2023-02-04T09:51:12;27.38;;;7.82;;
31728;SDS011;18309;43.658;1.312;2023-02-04T09:53:44;20.35;;;8.05;;
31728;SDS011;18309;43.658;1.312;2023-02-04T09:56:11;24.17;;;9.27;;
31728;SDS011;18309;43.658;1.312;2023-02-04T09:58:38;26.23;;;8.70;;
31728;SDS011;18309;43.658;1.312;2023-02-04T10:01:15;16.52;;;8.73;;
31728;SDS011;18309;43.658;1.312;2023-02-04T10:03:43;21.52;;;7.88;;
31728;SDS011;18309;43.658;1.312;2023-02-04T10:06:29;23.40;;;8.05;;
31728;SDS011;18309;43.658;1.312;2023-02-04T10:08:54;18.50;;;7.75;;
31728;SDS011;18309;43.658;1.312;2023-02-04T10:11:21;30.27;;;7.93;;
31728;SDS011;18309;43.658;1.312;2023-02-04T10:13:49;26.83;;;8.60;;
31728;SDS011;18309;43.658;1.312;2023-02-04T10:16:38;24.67;;;7.93;;
31728;SDS011;18309;43.658;1.312;2023-02-04T10:19:06;22.70;;;8.02;;
31728;SDS011;18309;43.658;1.312;2023-02-04T10:21:40;18.00;;;8.40;;
31728;SDS011;18309;43.658;1.312;2023-02-04T10:24:13;27.88;;;8.32;;
31728;SDS011;18309;43.658;1.312;2023-02-04T10:27:04;24.27;;;8.43;;
31728;SDS011;18309;43.658;1.312;2023-02-04T10:29:31;25.25;;;7.75;;
31728;SDS011;18309;43.658;1.312;2023-02-04T10:31:57;24.27;;;8.20;;
31728;SDS011;18309;43.658;1.312;2023-02-04T10:34:23;20.60;;;8.02;;
31728;SDS011;18309;43.658;1.312;2023-02-04T10:37:10;22.38;;;8.05;;
31728;SDS011;18309;43.658;1.312;2023-02-04T10:39:42;21.73;;;8.07;;
31728;SDS011;18309;43.658;1.312;2023-02-04T10:45:21;19.40;;;7.57;;
31728;SDS011;18309;43.658;1.312;2023-02-04T10:47:52;22.95;;;8.27;;
31728;SDS011;18309;43.658;1.312;2023-02-04T10:50:23;24.35;;;7.72;;
31728;SDS011;18309;43.658;1.312;2023-02-04T10:52:54;13.65;;;7.05;;
31728;SDS011;18309;43.658;1.312;2023-02-04T10:55:46;17.45;;;7.53;;
31728;SDS011;18309;43.658;1.312;2023-02-04T11:00:48;17.23;;;8.18;;
31728;SDS011;18309;43.658;1.312;2023-02-04T11:03:29;18.30;;;7.32;;
31728;SDS011;18309;43.658;1.312;2023-02-04T11:05:56;20.58;;;8.48;;
31728;SDS011;18309;43.658;1.312;2023-02-04T11:08:24;24.10;;;8.52;;
31728;SDS011;18309;43.658;1.312;2023-02-04T11:11:02;24.50;;;7.18;;
31728;SDS011;18309;43.658;1.312;2023-02-04T11:26:41;20.05;;;7.18;;
31728;SDS011;18309;43.658;1.312;2023-02-04T11:29:09;15.80;;;5.93;;
31728;SDS011;18309;43.658;1.312;2023-02-04T11:39:39;24.55;;;7.53;;
31728;SDS011;18309;43.658;1.312;2023-02-04T11:42:21;18.48;;;6.53;;
31728;SDS011;18309;43.658;1.312;2023-02-04T11:44:55;14.68;;;6.05;;
31728;SDS011;18309;43.658;1.312;2023-02-04T11:47:27;18.55;;;6.45;;
31728;SDS011;18309;43.658;1.312;2023-02-04T11:50:03;13.77;;;5.10;;
31728;SDS011;18309;43.658;1.312;2023-02-04T11:52:49;18.25;;;8.13;;
31728;SDS011;18309;43.658;1.312;2023-02-04T11:55:16;17.10;;;6.45;;
31728;SDS011;18309;43.658;1.312;2023-02-04T11:57:43;59.60;;;20.13;;
31728;SDS011;18309;43.658;1.312;2023-02-04T12:00:13;53.15;;;15.25;;
31728;SDS011;18309;43.658;1.312;2023-02-04T12:02:43;16.35;;;4.90;;
31728;SDS011;18309;43.658;1.312;2023-02-04T12:05:15;19.05;;;6.25;;
31728;SDS011;18309;43.658;1.312;2023-02-04T12:07:43;13.10;;;5.88;;
31728;SDS011;18309;43.658;1.312;2023-02-04T12:10:21;16.13;;;4.85;;
31728;SDS011;18309;43.658;1.312;2023-02-04T12:12:53;10.13;;;4.53;;
31728;SDS011;18309;43.658;1.312;2023-02-04T12:15:24;14.38;;;5.20;;
31728;SDS011;18309;43.658;1.312;2023-02-04T12:18:04;9.40;;;4.10;;
31728;SDS011;18309;43.658;1.312;2023-02-04T12:20:34;9.98;;;3.67;;
31728;SDS011;18309;43.658;1.312;2023-02-04T12:23:01;13.65;;;4.50;;
31728;SDS011;18309;43.658;1.312;2023-02-04T12:25:27;9.48;;;4.05;;
31728;SDS011;18309;43.658;1.312;2023-02-04T12:27:53;13.45;;;4.35;;
31728;SDS011;18309;43.658;1.312;2023-02-04T12:30:22;11.57;;;4.50;;
31728;SDS011;18309;43.658;1.312;2023-02-04T12:32:50;11.75;;;4.45;;
31728;SDS011;18309;43.658;1.312;2023-02-04T12:35:16;13.10;;;4.18;;
31728;SDS011;18309;43.658;1.312;2023-02-04T12:37:43;9.25;;;3.97;;
31728;SDS011;18309;43.658;1.312;2023-02-04T12:40:15;10.60;;;4.10;;
31728;SDS011;18309;43.658;1.312;2023-02-04T12:42:42;13.48;;;4.43;;
31728;SDS011;18309;43.658;1.312;2023-02-04T12:45:09;11.45;;;3.75;;
31728;SDS011;18309;43.658;1.312;2023-02-04T12:47:36;13.57;;;3.85;;
31728;SDS011;18309;43.658;1.312;2023-02-04T12:50:02;9.38;;;3.20;;
31728;SDS011;18309;43.658;1.312;2023-02-04T12:52:28;13.18;;;3.47;;
31728;SDS011;18309;43.658;1.312;2023-02-04T12:54:57;10.00;;;3.60;;
31728;SDS011;18309;43.658;1.312;2023-02-04T12:57:25;6.18;;;3.33;;
31728;SDS011;18309;43.658;1.312;2023-02-04T12:59:51;9.77;;;4.00;;
31728;SDS011;18309;43.658;1.312;2023-02-04T13:02:16;9.02;;;3.80;;
31728;SDS011;18309;43.658;1.312;2023-02-04T13:04:42;8.20;;;2.70;;
31728;SDS011;18309;43.658;1.312;2023-02-04T13:07:08;8.15;;;3.20;;
31728;SDS011;18309;43.658;1.312;2023-02-04T13:09:34;8.23;;;3.40;;
31728;SDS011;18309;43.658;1.312;2023-02-04T13:12:01;12.90;;;3.33;;
31728;SDS011;18309;43.658;1.312;2023-02-04T13:14:27;7.47;;;2.67;;
31728;SDS011;18309;43.658;1.312;2023-02-04T13:16:52;9.32;;;3.70;;
31728;SDS011;18309;43.658;1.312;2023-02-04T13:19:18;7.82;;;3.22;;
31728;SDS011;18309;43.658;1.312;2023-02-04T13:21:44;8.48;;;3.40;;
31728;SDS011;18309;43.658;1.312;2023-02-04T13:24:10;10.75;;;3.13;;
31728;SDS011;18309;43.658;1.312;2023-02-04T13:26:35;5.40;;;2.50;;
31728;SDS011;18309;43.658;1.312;2023-02-04T13:29:01;5.05;;;2.40;;
31728;SDS011;18309;43.658;1.312;2023-02-04T13:31:27;9.07;;;3.25;;
31728;SDS011;18309;43.658;1.312;2023-02-04T13:33:53;8.75;;;2.92;;
31728;SDS011;18309;43.658;1.312;2023-02-04T13:36:18;11.18;;;3.28;;
31728;SDS011;18309;43.658;1.312;2023-02-04T13:38:44;6.82;;;3.10;;
31728;SDS011;18309;43.658;1.312;2023-02-04T13:41:10;6.95;;;2.70;;
31728;SDS011;18309;43.658;1.312;2023-02-04T13:43:36;9.05;;;3.45;;
31728;SDS011;18309;43.658;1.312;2023-02-04T13:46:01;9.57;;;2.50;;
31728;SDS011;18309;43.658;1.312;2023-02-04T13:48:29;4.90;;;2.60;;
31728;SDS011;18309;43.658;1.312;2023-02-04T13:50:57;8.43;;;3.00;;
31728;SDS011;18309;43.658;1.312;2023-02-04T13:53:25;7.70;;;2.40;;
31728;SDS011;18309;43.658;1.312;2023-02-04T13:55:55;3.83;;;1.85;;
31728;SDS011;18309;43.658;1.312;2023-02-04T13:58:24;8.45;;;2.13;;
31728;SDS011;18309;43.658;1.312;2023-02-04T14:00:49;8.70;;;1.90;;
31728;SDS011;18309;43.658;1.312;2023-02-04T14:03:16;6.15;;;1.90;;
31728;SDS011;18309;43.658;1.312;2023-02-04T14:06:02;4.13;;;2.08;;
31728;SDS011;18309;43.658;1.312;2023-02-04T14:08:31;5.13;;;2.25;;
31728;SDS011;18309;43.658;1.312;2023-02-04T14:10:57;4.80;;;2.10;;
31728;SDS011;18309;43.658;1.312;2023-02-04T14:13:23;5.45;;;2.08;;
31728;SDS011;18309;43.658;1.312;2023-02-04T14:15:50;12.43;;;2.53;;
31728;SDS011;18309;43.658;1.312;2023-02-04T14:18:16;6.00;;;1.95;;
31728;SDS011;18309;43.658;1.312;2023-02-04T14:20:41;5.68;;;2.22;;
31728;SDS011;18309;43.658;1.312;2023-02-04T14:23:07;5.13;;;1.85;;
31728;SDS011;18309;43.658;1.312;2023-02-04T14:25:33;4.03;;;1.98;;
31728;SDS011;18309;43.658;1.312;2023-02-04T14:28:01;6.22;;;1.63;;
31728;SDS011;18309;43.658;1.312;2023-02-04T14:30:27;6.13;;;1.90;;
31728;SDS011;18309;43.658;1.312;2023-02-04T14:32:54;5.82;;;2.20;;
31728;SDS011;18309;43.658;1.312;2023-02-04T14:35:20;5.18;;;1.95;;
31728;SDS011;18309;43.658;1.312;2023-02-04T14:37:46;8.55;;;2.10;;
31728;SDS011;18309;43.658;1.312;2023-02-04T14:40:12;7.00;;;2.65;;
31728;SDS011;18309;43.658;1.312;2023-02-04T14:42:39;6.07;;;2.25;;
31728;SDS011;18309;43.658;1.312;2023-02-04T14:45:06;6.22;;;2.00;;
31728;SDS011;18309;43.658;1.312;2023-02-04T14:47:38;4.10;;;1.95;;
31728;SDS011;18309;43.658;1.312;2023-02-04T14:50:04;5.65;;;1.95;;
31728;SDS011;18309;43.658;1.312;2023-02-04T14:52:31;8.07;;;2.42;;
31728;SDS011;18309;43.658;1.312;2023-02-04T14:54:57;3.97;;;1.95;;
31728;SDS011;18309;43.658;1.312;2023-02-04T14:57:23;19.02;;;2.42;;
31728;SDS011;18309;43.658;1.312;2023-02-04T14:59:49;6.28;;;2.47;;